createdAt,value
2022-08-17T00:02:05.837Z,88.08
2022-08-17T00:04:51.560Z,88.48
2022-08-17T00:07:18.173Z,88.72
2022-08-17T00:09:44.913Z,88.53
2022-08-17T00:12:42.971Z,88.92
2022-08-17T00:14:58.082Z,90.18
2022-08-17T00:17:24.726Z,90.80
2022-08-17T00:19:51.293Z,90.68
2022-08-17T00:22:35.027Z,89.67
2022-08-17T00:25:07.445Z,88.17
2022-08-17T00:27:35.320Z,86.97
2022-08-17T00:30:02.111Z,87.01
2022-08-17T00:33:23.147Z,87.47
2022-08-17T00:35:18.315Z,89.04
2022-08-17T00:37:45.010Z,89.64
2022-08-17T00:40:14.605Z,88.47
2022-08-17T00:42:43.454Z,87.20
2022-08-17T00:45:12.946Z,86.96
2022-08-17T00:47:40.023Z,87.47
2022-08-17T00:50:10.779Z,89.45
2022-08-17T00:52:43.567Z,89.84
2022-08-17T00:55:11.115Z,89.97
2022-08-17T00:57:43.462Z,90.40
2022-08-17T01:00:14.097Z,90.98
2022-08-17T01:02:43.738Z,91.51
2022-08-17T01:05:14.900Z,91.56
2022-08-17T01:07:42.350Z,92.32
2022-08-17T01:10:58.882Z,92.34
2022-08-17T01:13:00.790Z,92.29
2022-08-17T01:15:27.496Z,90.76
2022-08-17T01:17:54.277Z,90.55
2022-08-17T01:20:20.915Z,90.53
2022-08-17T01:22:47.654Z,90.55
2022-08-17T01:25:14.819Z,88.83
2022-08-17T01:27:42.922Z,87.82
2022-08-17T01:30:56.802Z,88.50
2022-08-17T01:32:59.532Z,90.31
2022-08-17T01:35:26.256Z,91.50
2022-08-17T01:37:53.080Z,91.46
2022-08-17T01:40:38.943Z,92.41
2022-08-17T01:43:15.009Z,92.61
2022-08-17T01:45:46.544Z,92.17
2022-08-17T01:48:13.923Z,92.05
2022-08-17T01:50:44.308Z,92.34
2022-08-17T01:53:15.679Z,91.63
2022-08-17T01:55:49.235Z,89.80
2022-08-17T01:58:16.063Z,88.52
2022-08-17T02:00:59.474Z,87.95
2022-08-17T02:03:28.324Z,87.55
2022-08-17T02:05:58.691Z,88.36
2022-08-17T02:08:39.130Z,89.29
2022-08-17T02:11:16.975Z,89.42
2022-08-17T02:13:45.813Z,89.49
2022-08-17T02:16:13.243Z,90.37
2022-08-17T02:18:40.053Z,92.27
2022-08-17T02:21:07.640Z,93.44
2022-08-17T02:23:37.901Z,93.42
2022-08-17T02:26:05.348Z,94.57
2022-08-17T02:28:31.966Z,95.11
2022-08-17T02:31:05.764Z,95.46
2022-08-17T02:33:43.012Z,95.22
2022-08-17T02:36:12.394Z,96.41
2022-08-17T02:38:39.877Z,96.22
2022-08-17T02:41:06.920Z,95.76
2022-08-17T02:43:33.662Z,95.66
2022-08-17T02:46:00.420Z,94.46
2022-08-17T02:48:30.472Z,93.44
2022-08-17T02:50:58.094Z,93.03
2022-08-17T02:53:25.702Z,93.47
2022-08-17T02:55:53.219Z,93.29
2022-08-17T02:58:34.278Z,92.28
2022-08-17T03:01:04.257Z,92.92
2022-08-17T03:03:30.878Z,93.40
2022-08-17T03:05:57.929Z,93.63
2022-08-17T03:08:25.522Z,93.62
2022-08-17T03:10:52.758Z,94.42
2022-08-17T03:13:20.146Z,95.02
2022-08-17T03:15:48.072Z,95.92
2022-08-17T03:18:24.874Z,96.76
2022-08-17T03:20:55.113Z,96.38
2022-08-17T03:23:24.044Z,95.91
2022-08-17T03:25:52.852Z,95.76
2022-08-17T03:28:20.401Z,95.55
2022-08-17T03:30:47.154Z,95.52
2022-08-17T03:33:14.221Z,95.59
2022-08-17T03:35:41.813Z,95.90
2022-08-17T03:38:11.546Z,95.07
2022-08-17T03:40:57.565Z,94.97
2022-08-17T03:43:25.612Z,95.55
2022-08-17T03:46:10.765Z,94.58
2022-08-17T03:49:09.692Z,95.24
2022-08-17T03:51:51.517Z,95.86
2022-08-17T03:54:33.546Z,95.31
2022-08-17T03:57:06.162Z,95.18
2022-08-17T03:59:33.869Z,95.03
2022-08-17T04:02:04.417Z,94.85
2022-08-17T04:04:31.143Z,96.05
2022-08-17T04:06:58.722Z,96.28
2022-08-17T04:09:25.392Z,96.71
2022-08-17T04:11:53.245Z,97.44
2022-08-17T04:14:20.401Z,97.51
2022-08-17T04:16:47.065Z,98.10
2022-08-17T04:19:13.745Z,98.01
2022-08-17T04:21:40.505Z,98.34
2022-08-17T04:24:07.764Z,97.68
2022-08-17T04:26:53.175Z,97.58
2022-08-17T04:29:21.411Z,97.37
2022-08-17T04:31:48.186Z,96.52
2022-08-17T04:34:14.805Z,95.81
2022-08-17T04:36:50.262Z,96.21
2022-08-17T04:39:17.253Z,95.48
2022-08-17T04:41:59.241Z,97.15
2022-08-17T04:44:27.243Z,98.27
2022-08-17T04:47:04.787Z,99.44
2022-08-17T04:49:32.612Z,100.00
2022-08-17T04:52:04.402Z,100.00
2022-08-17T04:54:31.471Z,100.00
2022-08-17T04:56:58.262Z,100.00
2022-08-17T04:59:24.924Z,100.00
2022-08-17T05:01:52.318Z,100.00
2022-08-17T05:04:35.141Z,100.00
2022-08-17T05:07:03.204Z,100.00
2022-08-17T05:09:29.870Z,100.00
2022-08-17T05:12:01.237Z,100.00
2022-08-17T05:14:32.913Z,100.00
2022-08-17T05:17:00.589Z,100.00
2022-08-17T05:19:27.894Z,100.00
2022-08-17T05:21:54.529Z,100.00
2022-08-17T05:24:40.722Z,100.00
2022-08-17T05:27:07.780Z,100.00
2022-08-17T05:29:35.391Z,100.00
2022-08-17T05:32:38.224Z,100.00
2022-08-17T05:35:00.009Z,100.00
2022-08-17T05:37:26.666Z,100.00
2022-08-17T05:39:54.500Z,100.00
2022-08-17T05:42:21.683Z,100.00
2022-08-17T05:44:48.547Z,100.00
2022-08-17T05:47:15.252Z,100.00
2022-08-17T05:49:41.956Z,100.00
2022-08-17T05:52:26.785Z,100.00
2022-08-17T05:55:09.616Z,100.00
2022-08-17T05:57:59.995Z,99.73
2022-08-17T06:00:36.308Z,96.49
2022-08-17T06:03:18.719Z,95.85
2022-08-17T06:06:09.602Z,94.88
2022-08-17T06:08:51.708Z,94.28
2022-08-17T06:11:20.049Z,93.67
2022-08-17T06:14:22.578Z,94.19
2022-08-17T06:16:56.028Z,93.59
2022-08-17T06:19:44.305Z,93.76
2022-08-17T06:22:16.551Z,93.10
2022-08-17T06:24:51.669Z,92.13
2022-08-17T06:27:38.704Z,92.17
2022-08-17T06:30:12.041Z,91.47
2022-08-17T06:32:42.472Z,90.54
2022-08-17T06:35:12.516Z,90.35
2022-08-17T06:38:01.429Z,90.66
2022-08-17T06:40:52.055Z,90.65
2022-08-17T06:43:34.075Z,90.05
2022-08-17T06:46:15.524Z,89.43
2022-08-17T06:49:07.899Z,89.80
2022-08-17T06:51:41.239Z,88.91
2022-08-17T06:54:11.188Z,88.47
2022-08-17T06:56:53.569Z,88.21
2022-08-17T06:59:54.151Z,88.24
2022-08-17T07:02:52.729Z,87.31
2022-08-17T07:05:24.706Z,86.83
2022-08-17T07:08:01.907Z,84.56
2022-08-17T07:10:36.070Z,84.13
2022-08-17T07:13:20.489Z,83.07
2022-08-17T07:15:51.811Z,83.36
2022-08-17T07:18:24.162Z,80.93
2022-08-17T07:20:59.920Z,80.65
2022-08-17T07:23:38.655Z,81.35
2022-08-17T07:26:07.936Z,79.24
2022-08-17T07:28:36.056Z,79.79
2022-08-17T07:31:04.847Z,77.83
2022-08-17T07:33:34.031Z,76.75
2022-08-17T07:36:01.622Z,77.09
2022-08-17T07:38:31.233Z,76.06
2022-08-17T07:40:58.102Z,75.12
2022-08-17T07:43:29.445Z,73.29
2022-08-17T07:46:17.708Z,73.96
2022-08-17T07:48:49.688Z,71.56
2022-08-17T07:51:26.313Z,72.49
2022-08-17T07:54:13.186Z,72.92
2022-08-17T07:56:42.966Z,69.70
2022-08-17T07:59:14.494Z,71.57
2022-08-17T08:01:45.524Z,71.82
2022-08-17T08:07:16.429Z,70.70
2022-08-17T08:09:46.570Z,69.33
2022-08-17T08:12:33.517Z,68.84
2022-08-17T08:15:07.738Z,68.57
2022-08-17T08:17:45.294Z,69.39
2022-08-17T08:20:51.185Z,67.70
2022-08-17T08:23:34.057Z,65.78
2022-08-17T08:26:01.662Z,67.18
2022-08-17T08:29:03.741Z,67.54
2022-08-17T08:32:05.534Z,64.83
2022-08-17T08:35:01.759Z,66.61
2022-08-17T08:37:55.734Z,67.32
2022-08-17T08:40:38.729Z,66.63
2022-08-17T08:43:40.553Z,62.86
2022-08-17T08:46:35.401Z,62.76
2022-08-17T08:50:02.070Z,62.21
2022-08-17T08:52:32.366Z,61.64
2022-08-17T08:55:12.398Z,61.62
2022-08-17T08:57:47.928Z,61.42
2022-08-17T09:00:25.281Z,59.41
2022-08-17T09:03:49.711Z,59.72
2022-08-17T09:06:39.017Z,59.39
2022-08-17T09:09:35.907Z,56.79
2022-08-17T09:12:25.430Z,56.18
2022-08-17T09:15:01.429Z,55.71
2022-08-17T09:17:42.140Z,55.61
2022-08-17T09:20:10.150Z,55.53
2022-08-17T09:22:48.823Z,55.24
2022-08-17T09:25:23.567Z,54.85
2022-08-17T09:27:57.358Z,55.16
2022-08-17T09:30:36.228Z,53.47
2022-08-17T09:33:08.715Z,52.78
2022-08-17T09:35:44.575Z,53.22
2022-08-17T09:38:33.247Z,53.85
2022-08-17T09:41:06.403Z,54.03
2022-08-17T09:43:54.178Z,53.69
2022-08-17T09:46:39.330Z,53.71
2022-08-17T09:49:24.648Z,52.81
2022-08-17T09:51:58.678Z,51.23
2022-08-17T09:54:39.102Z,51.70
2022-08-17T09:57:34.959Z,52.46
2022-08-17T10:00:13.332Z,51.10
2022-08-17T10:02:51.237Z,52.03
2022-08-17T10:05:43.239Z,51.15
2022-08-17T10:08:30.104Z,49.92
2022-08-17T10:11:08.095Z,50.77
2022-08-17T10:13:41.342Z,51.10
2022-08-17T10:16:23.187Z,47.38
2022-08-17T10:19:02.776Z,48.56
2022-08-17T10:21:48.606Z,48.08
2022-08-17T10:25:22.962Z,46.34
2022-08-17T10:27:41.206Z,46.68
2022-08-17T10:30:10.140Z,48.06
2022-08-17T10:32:59.897Z,46.61
2022-08-17T10:35:52.692Z,46.82
2022-08-17T10:38:47.912Z,45.87
2022-08-17T10:41:30.948Z,46.05
2022-08-17T10:44:39.682Z,46.37
2022-08-17T10:46:57.129Z,46.27
2022-08-17T10:49:29.537Z,45.01
2022-08-17T10:51:58.682Z,44.79
2022-08-17T10:54:25.268Z,43.35
2022-08-17T10:56:54.296Z,43.49
2022-08-17T10:59:36.289Z,44.25
2022-08-17T11:02:27.495Z,43.18
2022-08-17T11:05:06.352Z,42.89
2022-08-17T11:07:58.642Z,43.02
2022-08-17T11:10:42.272Z,43.40
2022-08-17T11:13:24.518Z,41.09
2022-08-17T11:16:26.402Z,43.18
2022-08-17T11:19:22.516Z,42.92
2022-08-17T11:22:21.930Z,41.50
2022-08-17T11:24:53.123Z,41.04
2022-08-17T11:27:31.683Z,41.83
2022-08-17T11:30:05.363Z,41.81
2022-08-17T11:32:34.069Z,42.39
2022-08-17T11:35:12.087Z,39.01
2022-08-17T11:37:45.660Z,38.88
2022-08-17T11:40:24.113Z,38.54
2022-08-17T11:42:59.200Z,40.25
2022-08-17T11:45:42.083Z,38.02
2022-08-17T11:48:47.189Z,38.01
2022-08-17T11:51:33.309Z,38.54
2022-08-17T11:57:00.098Z,41.07
2022-08-17T11:59:46.872Z,39.26
2022-08-17T12:02:35.345Z,39.12
2022-08-17T12:05:17.503Z,39.70
2022-08-17T12:07:51.917Z,40.31
2022-08-17T12:10:30.238Z,40.18
2022-08-17T12:12:57.645Z,39.42
2022-08-17T12:15:37.370Z,39.08
2022-08-17T12:18:04.416Z,39.23
2022-08-17T12:20:38.207Z,37.07
2022-08-17T12:23:17.664Z,35.62
2022-08-17T12:26:04.497Z,35.70
2022-08-17T12:28:35.346Z,36.61
2022-08-17T12:31:07.085Z,37.31
2022-08-17T12:33:37.124Z,36.55
2022-08-17T12:36:07.591Z,36.82
2022-08-17T12:38:37.300Z,36.60
2022-08-17T12:41:22.896Z,35.74
2022-08-17T12:44:02.286Z,34.12
2022-08-17T12:46:33.627Z,34.55
2022-08-17T12:49:19.752Z,35.79
2022-08-17T12:51:47.778Z,35.02
2022-08-17T12:54:26.510Z,37.46
2022-08-17T12:56:53.787Z,35.37
2022-08-17T12:59:29.622Z,37.16
2022-08-17T13:01:57.480Z,36.63
2022-08-17T13:04:24.522Z,34.92
2022-08-17T13:06:59.874Z,35.16
2022-08-17T13:09:36.082Z,36.18
2022-08-17T13:12:07.491Z,36.22
2022-08-17T13:14:35.170Z,34.40
2022-08-17T13:17:08.377Z,33.26
2022-08-17T13:19:49.271Z,34.40
2022-08-17T13:22:16.827Z,33.74
2022-08-17T13:24:55.135Z,33.76
2022-08-17T13:27:25.750Z,33.70
2022-08-17T13:29:57.551Z,35.42
2022-08-17T13:32:36.692Z,35.00
2022-08-17T13:35:39.929Z,33.78
2022-08-17T13:38:11.857Z,33.94
2022-08-17T13:40:38.533Z,33.22
2022-08-17T13:43:05.481Z,33.82
2022-08-17T13:45:41.316Z,33.46
2022-08-17T13:48:08.885Z,34.11
2022-08-17T13:50:42.862Z,34.45
2022-08-17T13:53:27.055Z,35.20
2022-08-17T13:55:58.159Z,35.23
2022-08-17T13:58:29.173Z,34.52
2022-08-17T14:00:56.361Z,33.44
2022-08-17T14:03:24.427Z,33.47
2022-08-17T14:05:52.779Z,37.48
2022-08-17T14:08:20.821Z,36.24
2022-08-17T14:11:01.954Z,36.09
2022-08-17T14:13:32.263Z,34.28
2022-08-17T14:15:58.850Z,33.71
2022-08-17T14:18:35.516Z,33.92
2022-08-17T14:21:12.487Z,33.60
2022-08-17T14:23:39.340Z,33.75
2022-08-17T14:26:06.091Z,35.26
2022-08-17T14:28:33.086Z,34.05
2022-08-17T14:31:03.096Z,33.79
2022-08-17T14:33:29.801Z,33.98
2022-08-17T14:35:57.608Z,33.37
2022-08-17T14:38:24.746Z,33.26
2022-08-17T14:40:51.995Z,33.17
2022-08-17T14:43:18.959Z,33.18
2022-08-17T14:45:45.616Z,32.72
2022-08-17T14:48:12.372Z,32.98
2022-08-17T14:50:41.804Z,32.87
2022-08-17T14:53:11.264Z,33.00
2022-08-17T14:55:40.010Z,32.88
2022-08-17T14:58:09.780Z,33.16
2022-08-17T15:00:37.380Z,34.51
2022-08-17T15:03:07.618Z,35.72
2022-08-17T15:05:37.803Z,36.70
2022-08-17T15:08:05.862Z,36.70
2022-08-17T15:10:32.698Z,35.07
2022-08-17T15:13:00.490Z,39.09
2022-08-17T15:15:28.638Z,37.99
2022-08-17T15:17:55.438Z,35.08
2022-08-17T15:20:27.970Z,33.93
2022-08-17T15:22:57.135Z,34.43
2022-08-17T15:25:25.504Z,33.00
2022-08-17T15:27:52.697Z,34.00
2022-08-17T15:30:19.866Z,36.50
2022-08-17T15:32:54.348Z,35.40
2022-08-17T15:35:27.548Z,35.37
2022-08-17T15:38:09.784Z,34.39
2022-08-17T15:40:42.227Z,34.27
2022-08-17T15:43:15.158Z,33.55
2022-08-17T15:45:42.086Z,33.43
2022-08-17T15:48:09.211Z,33.45
2022-08-17T15:50:36.261Z,33.43
2022-08-17T15:53:04.920Z,35.66
2022-08-17T15:55:32.698Z,36.21
2022-08-17T15:58:00.283Z,37.05
2022-08-17T16:00:28.621Z,35.76
2022-08-17T16:03:46.438Z,36.75
2022-08-17T16:05:44.568Z,37.03
2022-08-17T16:08:17.115Z,39.58
2022-08-17T16:10:46.888Z,42.67
2022-08-17T16:13:17.706Z,43.15
2022-08-17T16:15:57.055Z,45.18
2022-08-17T16:18:37.011Z,43.52
2022-08-17T16:21:42.480Z,41.41
2022-08-17T16:24:13.423Z,42.60
2022-08-17T16:26:43.689Z,42.20
2022-08-17T16:29:10.617Z,36.61
2022-08-17T16:31:37.904Z,41.01
2022-08-17T16:34:58.463Z,40.78
2022-08-17T16:37:25.135Z,41.58
2022-08-17T16:39:55.196Z,43.29
2022-08-17T16:42:25.014Z,45.21
2022-08-17T16:47:42.863Z,46.43
2022-08-17T16:50:34.826Z,49.58
2022-08-17T16:53:14.935Z,50.31
2022-08-17T16:55:44.345Z,48.86
2022-08-17T16:58:19.263Z,50.29
2022-08-17T17:00:51.869Z,52.31
2022-08-17T17:03:22.138Z,52.86
2022-08-17T17:06:01.469Z,54.05
2022-08-17T17:08:40.694Z,53.42
2022-08-17T17:11:18.040Z,54.39
2022-08-17T17:13:50.968Z,54.68
2022-08-17T17:16:23.964Z,54.95
2022-08-17T17:19:13.401Z,54.24
2022-08-17T17:21:58.712Z,54.81
2022-08-17T17:24:57.028Z,55.49
2022-08-17T17:27:30.305Z,54.46
2022-08-17T17:29:56.966Z,57.30
2022-08-17T17:32:51.022Z,56.42
2022-08-17T17:35:31.874Z,55.42
2022-08-17T17:38:03.350Z,56.69
2022-08-17T17:40:40.417Z,58.67
2022-08-17T17:43:37.029Z,57.87
2022-08-17T17:46:26.573Z,59.33
2022-08-17T17:48:50.834Z,57.28
2022-08-17T17:52:08.500Z,57.66
2022-08-17T17:54:48.263Z,57.08
2022-08-17T17:57:45.566Z,58.32
2022-08-17T18:00:18.712Z,58.79
2022-08-17T18:02:47.423Z,59.54
2022-08-17T18:05:34.371Z,59.86
2022-08-17T18:08:40.943Z,58.36
2022-08-17T18:11:24.044Z,58.06
2022-08-17T18:14:04.487Z,59.25
2022-08-17T18:16:32.955Z,60.33
2022-08-17T18:19:01.366Z,59.77
2022-08-17T18:21:38.247Z,59.75
2022-08-17T18:24:10.567Z,59.64
2022-08-17T18:26:49.537Z,59.85
2022-08-17T18:29:31.915Z,60.19
2022-08-17T18:32:29.076Z,60.91
2022-08-17T18:35:01.813Z,59.72
2022-08-17T18:37:31.025Z,61.86
2022-08-17T18:39:57.765Z,60.40
2022-08-17T18:42:27.136Z,58.82
2022-08-17T18:44:55.655Z,58.65
2022-08-17T18:47:28.022Z,57.78
2022-08-17T18:49:58.440Z,57.85
2022-08-17T18:52:28.085Z,58.28
2022-08-17T18:55:15.347Z,60.44
2022-08-17T18:57:45.660Z,59.17
2022-08-17T19:00:13.290Z,59.57
2022-08-17T19:02:57.177Z,59.78
2022-08-17T19:05:36.673Z,60.70
2022-08-17T19:08:24.746Z,61.97
2022-08-17T19:10:59.389Z,61.25
2022-08-17T19:13:31.146Z,61.67
2022-08-17T19:16:15.137Z,61.07
2022-08-17T19:19:01.981Z,60.14
2022-08-17T19:21:48.208Z,63.07
2022-08-17T19:24:25.098Z,61.48
2022-08-17T19:26:58.788Z,61.56
2022-08-17T19:29:36.427Z,61.15
2022-08-17T19:32:04.295Z,63.15
2022-08-17T19:34:34.763Z,63.17
2022-08-17T19:37:16.784Z,63.46
2022-08-17T19:39:53.342Z,63.74
2022-08-17T19:42:37.200Z,63.85
2022-08-17T19:45:28.590Z,65.16
2022-08-17T19:48:12.887Z,65.25
2022-08-17T19:50:55.422Z,65.79
2022-08-17T19:53:23.439Z,66.12
2022-08-17T19:55:51.455Z,65.98
2022-08-17T19:58:52.588Z,65.45
2022-08-17T20:01:34.814Z,64.98
2022-08-17T20:04:21.109Z,65.90
2022-08-17T20:06:50.205Z,66.75
2022-08-17T20:09:39.224Z,65.62
2022-08-17T20:12:11.222Z,66.76
2022-08-17T20:14:53.629Z,65.99
2022-08-17T20:17:28.305Z,66.99
2022-08-17T20:20:06.497Z,66.55
2022-08-17T20:22:52.514Z,65.97
2022-08-17T20:25:40.788Z,66.78
2022-08-17T20:28:28.837Z,68.67
2022-08-17T20:30:59.603Z,67.44
2022-08-17T20:33:31.606Z,68.66
2022-08-17T20:36:04.959Z,70.43
2022-08-17T20:38:48.940Z,70.11
2022-08-17T20:41:22.484Z,70.61
2022-08-17T20:44:03.065Z,70.44
2022-08-17T20:46:46.026Z,70.86
2022-08-17T20:49:19.962Z,71.49
2022-08-17T20:52:08.981Z,73.08
2022-08-17T20:54:53.179Z,73.59
2022-08-17T20:57:35.256Z,72.85
2022-08-17T21:00:15.612Z,73.16
2022-08-17T21:02:45.931Z,73.62
2022-08-17T21:05:42.971Z,73.74
2022-08-17T21:08:19.564Z,73.14
2022-08-17T21:10:47.169Z,72.56
2022-08-17T21:13:15.498Z,73.62
2022-08-17T21:15:42.362Z,73.74
2022-08-17T21:18:25.186Z,72.85
2022-08-17T21:21:18.989Z,72.87
2022-08-17T21:24:00.992Z,72.20
2022-08-17T21:26:59.841Z,72.08
2022-08-17T21:30:01.258Z,73.27
2022-08-17T21:32:37.832Z,72.52
2022-08-17T21:35:16.636Z,73.45
2022-08-17T21:37:46.541Z,73.22
2022-08-17T21:40:21.569Z,73.69
2022-08-17T21:42:55.527Z,74.91
2022-08-17T21:45:49.224Z,74.87
2022-08-17T21:48:26.676Z,75.79
2022-08-17T21:51:13.493Z,75.92
2022-08-17T21:54:01.444Z,74.88
2022-08-17T21:56:34.409Z,74.93
2022-08-17T21:59:07.644Z,77.37
2022-08-17T22:01:40.383Z,77.00
2022-08-17T22:04:20.186Z,77.46
2022-08-17T22:06:56.783Z,77.91
2022-08-17T22:09:31.649Z,77.81
2022-08-17T22:12:10.201Z,77.87
2022-08-17T22:14:53.424Z,78.06
2022-08-17T22:17:24.600Z,77.43
2022-08-17T22:20:01.415Z,78.41
2022-08-17T22:22:32.295Z,78.75
2022-08-17T22:25:04.523Z,79.50
2022-08-17T22:27:56.640Z,79.40
2022-08-17T22:30:40.033Z,78.98
2022-08-17T22:33:29.001Z,80.03
2022-08-17T22:36:11.808Z,79.70
2022-08-17T22:38:40.537Z,79.18
2022-08-17T22:41:23.584Z,79.17
2022-08-17T22:43:50.760Z,79.24
2022-08-17T22:46:23.875Z,77.47
2022-08-17T22:48:56.791Z,78.06
2022-08-17T22:51:28.347Z,77.03
2022-08-17T22:54:16.544Z,76.77
2022-08-17T22:57:18.940Z,75.23
2022-08-17T22:59:50.549Z,75.98
2022-08-17T23:02:28.014Z,75.65
2022-08-17T23:05:15.857Z,75.09
2022-08-17T23:07:45.476Z,74.03
2022-08-17T23:10:13.511Z,75.40
2022-08-17T23:12:41.325Z,74.88
2022-08-17T23:15:14.337Z,73.35
2022-08-17T23:17:42.068Z,74.49
2022-08-17T23:20:13.084Z,73.65
2022-08-17T23:22:52.039Z,73.46
2022-08-17T23:25:26.403Z,73.60
2022-08-17T23:27:53.355Z,73.48
2022-08-17T23:30:20.422Z,74.25
2022-08-17T23:32:53.761Z,74.67
2022-08-17T23:35:40.114Z,74.72
2022-08-17T23:38:10.090Z,75.21
2022-08-17T23:40:37.864Z,74.23
2022-08-17T23:43:24.106Z,75.92
2022-08-17T23:45:54.061Z,76.94
2022-08-17T23:48:32.681Z,76.50
2022-08-17T23:51:05.967Z,76.60
2022-08-17T23:53:36.717Z,76.44
2022-08-17T23:56:09.723Z,76.75
2022-08-17T23:58:38.576Z,77.47
